Time;durP1;ratioP1;P1;durP2;ratioP2;P2;SDS_P1;SDS_P2;PMS_P1;PMS_P2;Temp;Humidity;BMP_temperature;BMP_pressure;BME280_temperature;BME280_humidity;BME280_pressure;Samples;Min_cycle;Max_cycle;Signal;HPM_P1;HPM_P2
2022/08/31 00:04:13;;;;;;;;;3.00;2.00;;;;;;;;5079872;27;45858;-77
2022/08/31 00:06:38;;;;;;;;;2.00;2.00;;;;;;;;5079406;28;45417;-77
2022/08/31 00:09:05;;;;;;;;;3.33;3.33;;;;;;;;5080330;27;45368;-77
2022/08/31 00:11:34;;;;;;;;;4.00;4.00;;;;;;;;5079865;28;45378;-77
2022/08/31 00:14:01;;;;;;;;;2.67;2.00;;;;;;;;5079770;28;46246;-76
2022/08/31 00:16:28;;;;;;;;;2.67;2.33;;;;;;;;5079945;28;45270;-76
2022/08/31 00:18:54;;;;;;;;;3.00;3.00;;;;;;;;5079944;27;45388;-77
2022/08/31 00:21:20;;;;;;;;;3.67;2.67;;;;;;;;5078953;28;45348;-77
2022/08/31 00:23:46;;;;;;;;;3.00;3.00;;;;;;;;5081081;27;46190;-77
2022/08/31 00:26:12;;;;;;;;;5.00;4.00;;;;;;;;5100075;27;45450;-77
2022/08/31 00:28:37;;;;;;;;;7.33;5.33;;;;;;;;5100113;27;45347;-77
2022/08/31 00:31:02;;;;;;;;;5.33;3.00;;;;;;;;5100377;27;45431;-77
2022/08/31 00:33:27;;;;;;;;;4.00;4.00;;;;;;;;5099936;27;46490;-78
2022/08/31 00:35:53;;;;;;;;;4.00;4.00;;;;;;;;5100126;27;45316;-77
2022/08/31 00:38:18;;;;;;;;;4.00;4.00;;;;;;;;5100382;27;45303;-76
2022/08/31 00:40:45;;;;;;;;;3.67;3.33;;;;;;;;5084281;27;45210;-76
2022/08/31 00:43:10;;;;;;;;;5.00;3.33;;;;;;;;5079006;28;45494;-76
2022/08/31 00:45:35;;;;;;;;;4.33;3.33;;;;;;;;5079575;28;45209;-77
2022/08/31 00:48:00;;;;;;;;;4.67;3.33;;;;;;;;5079570;28;45423;-77
2022/08/31 00:50:26;;;;;;;;;5.00;3.00;;;;;;;;5079837;27;45219;-77
2022/08/31 00:52:54;;;;;;;;;8.00;5.00;;;;;;;;5079127;28;46625;-76
2022/08/31 00:55:32;;;;;;;;;4.67;4.67;;;;;;;;5079333;27;45258;-77
2022/08/31 00:58:00;;;;;;;;;3.00;3.00;;;;;;;;5099618;27;45484;-78
2022/08/31 01:00:26;;;;;;;;;5.00;5.00;;;;;;;;5099539;27;45220;-76
2022/08/31 01:02:53;;;;;;;;;7.00;3.67;;;;;;;;5098971;27;45328;-76
2022/08/31 01:05:18;;;;;;;;;6.00;4.67;;;;;;;;5081267;27;45359;-77
2022/08/31 01:07:46;;;;;;;;;5.00;5.00;;;;;;;;5099423;27;45376;-75
2022/08/31 01:10:12;;;;;;;;;5.67;5.00;;;;;;;;5099382;27;45415;-77
2022/08/31 01:12:37;;;;;;;;;8.00;6.33;;;;;;;;5098075;27;45312;-77
2022/08/31 01:15:05;;;;;;;;;6.00;6.00;;;;;;;;5099186;27;45430;-76
2022/08/31 01:17:32;;;;;;;;;6.33;6.33;;;;;;;;5099271;27;45362;-76
2022/08/31 01:19:57;;;;;;;;;7.00;6.67;;;;;;;;5099645;27;45587;-77
2022/08/31 01:22:29;;;;;;;;;10.00;7.00;;;;;;;;5098999;27;46220;-77
2022/08/31 01:24:55;;;;;;;;;6.00;6.00;;;;;;;;5099272;27;45292;-79
2022/08/31 01:27:26;;;;;;;;;7.33;7.00;;;;;;;;5099173;27;45188;-77
2022/08/31 01:29:51;;;;;;;;;11.33;7.67;;;;;;;;5098290;27;45259;-77
2022/08/31 01:32:16;;;;;;;;;8.33;8.33;;;;;;;;5098694;27;45268;-77
2022/08/31 01:34:41;;;;;;;;;12.67;8.00;;;;;;;;5098725;27;45288;-77
2022/08/31 01:37:07;;;;;;;;;10.33;8.67;;;;;;;;5099196;27;45602;-75
2022/08/31 01:39:32;;;;;;;;;8.00;8.00;;;;;;;;5099224;27;45371;-76
2022/08/31 01:41:57;;;;;;;;;9.67;7.00;;;;;;;;5098621;27;46572;-77
2022/08/31 01:44:23;;;;;;;;;9.00;8.00;;;;;;;;5098907;27;45509;-77
2022/08/31 01:46:48;;;;;;;;;7.33;7.33;;;;;;;;5080749;27;46100;-75
2022/08/31 01:49:14;;;;;;;;;10.67;9.33;;;;;;;;5078727;28;45442;-76
2022/08/31 01:51:40;;;;;;;;;9.00;7.67;;;;;;;;5078081;28;46165;-75
2022/08/31 01:54:05;;;;;;;;;7.00;7.00;;;;;;;;5078328;28;45381;-75
2022/08/31 01:56:32;;;;;;;;;8.00;8.00;;;;;;;;5078653;28;45391;-76
2022/08/31 01:58:58;;;;;;;;;9.00;7.33;;;;;;;;5078118;28;45300;-76
2022/08/31 02:01:25;;;;;;;;;9.00;7.00;;;;;;;;5077734;27;45483;-75
2022/08/31 02:03:50;;;;;;;;;7.67;7.67;;;;;;;;5078236;27;45376;-76
2022/08/31 02:06:15;;;;;;;;;7.33;7.33;;;;;;;;5077953;28;45174;-77
2022/08/31 02:08:41;;;;;;;;;10.67;10.00;;;;;;;;5078467;28;45348;-75
2022/08/31 02:11:07;;;;;;;;;7.00;7.00;;;;;;;;5077883;28;46333;-76
2022/08/31 02:13:33;;;;;;;;;12.00;10.33;;;;;;;;5077601;28;45370;-75
2022/08/31 02:15:58;;;;;;;;;10.00;10.00;;;;;;;;5078297;27;45318;-76
2022/08/31 02:18:23;;;;;;;;;9.00;7.00;;;;;;;;5077483;27;45695;-75
2022/08/31 02:20:49;;;;;;;;;13.00;10.00;;;;;;;;5077404;28;45695;-76
2022/08/31 02:23:14;;;;;;;;;8.67;7.67;;;;;;;;5077854;27;45336;-78
2022/08/31 02:25:39;;;;;;;;;10.00;9.67;;;;;;;;5078274;28;45209;-77
2022/08/31 02:28:04;;;;;;;;;10.33;10.33;;;;;;;;5077987;28;45202;-78
2022/08/31 02:30:30;;;;;;;;;10.00;10.00;;;;;;;;5077679;28;45358;-75
2022/08/31 02:32:55;;;;;;;;;11.00;9.00;;;;;;;;5077865;28;45339;-76
2022/08/31 02:35:20;;;;;;;;;13.00;8.67;;;;;;;;5077064;27;45399;-76
2022/08/31 02:37:45;;;;;;;;;12.67;10.00;;;;;;;;5078103;27;45307;-76
2022/08/31 02:40:11;;;;;;;;;11.33;10.33;;;;;;;;5077658;28;45408;-75
2022/08/31 02:42:37;;;;;;;;;12.33;9.00;;;;;;;;5077603;28;45268;-76
2022/08/31 02:45:03;;;;;;;;;14.00;11.33;;;;;;;;5076643;28;45408;-75
2022/08/31 02:47:30;;;;;;;;;10.33;10.33;;;;;;;;5077986;28;45246;-76
2022/08/31 02:49:55;;;;;;;;;9.33;9.33;;;;;;;;5077556;28;46058;-75
2022/08/31 02:52:20;;;;;;;;;10.33;10.33;;;;;;;;5077027;27;45324;-76
2022/08/31 02:54:45;;;;;;;;;10.00;8.67;;;;;;;;5077573;28;45450;-77
2022/08/31 02:57:11;;;;;;;;;15.67;14.67;;;;;;;;5077888;28;45316;-75
2022/08/31 02:59:36;;;;;;;;;9.00;9.00;;;;;;;;5077236;28;46457;-75
2022/08/31 03:02:01;;;;;;;;;9.67;9.67;;;;;;;;5077585;28;45394;-75
2022/08/31 03:04:27;;;;;;;;;10.33;10.33;;;;;;;;5077615;28;45358;-75
2022/08/31 03:06:53;;;;;;;;;13.33;9.00;;;;;;;;5077394;28;45469;-75
2022/08/31 03:09:18;;;;;;;;;14.33;12.33;;;;;;;;5083730;27;45359;-76
2022/08/31 03:11:43;;;;;;;;;12.00;12.00;;;;;;;;5097652;27;45768;-75
2022/08/31 03:14:08;;;;;;;;;16.00;11.33;;;;;;;;5097879;27;45372;-75
2022/08/31 03:16:34;;;;;;;;;14.33;11.33;;;;;;;;5097736;27;45343;-76
2022/08/31 03:18:59;;;;;;;;;13.33;9.33;;;;;;;;5097392;27;46498;-76
2022/08/31 03:21:24;;;;;;;;;13.67;11.33;;;;;;;;5097694;27;45301;-76
2022/08/31 03:23:49;;;;;;;;;12.67;12.67;;;;;;;;5097766;27;45250;-77
2022/08/31 03:26:15;;;;;;;;;18.33;13.33;;;;;;;;5089043;27;45341;-77
2022/08/31 03:28:40;;;;;;;;;15.00;14.33;;;;;;;;5076257;28;45708;-77
2022/08/31 03:31:06;;;;;;;;;13.33;11.33;;;;;;;;5076499;28;45423;-77
2022/08/31 03:33:31;;;;;;;;;14.67;12.67;;;;;;;;5077144;28;45288;-76
2022/08/31 03:35:58;;;;;;;;;14.00;11.00;;;;;;;;5077241;28;45307;-77
2022/08/31 03:38:23;;;;;;;;;13.67;10.67;;;;;;;;5077020;28;45670;-77
2022/08/31 03:40:49;;;;;;;;;13.00;12.00;;;;;;;;5076760;28;45254;-76
2022/08/31 03:43:15;;;;;;;;;15.67;14.00;;;;;;;;5089756;27;45426;-77
2022/08/31 03:45:41;;;;;;;;;14.00;14.00;;;;;;;;5097524;27;45372;-78
2022/08/31 03:48:07;;;;;;;;;14.00;12.67;;;;;;;;5097200;27;45453;-77
2022/08/31 03:50:33;;;;;;;;;14.00;12.67;;;;;;;;5097252;27;45423;-77
2022/08/31 03:52:59;;;;;;;;;14.33;14.33;;;;;;;;5078850;27;45348;-77
2022/08/31 03:55:27;;;;;;;;;13.00;13.00;;;;;;;;5097279;27;45221;-77
2022/08/31 03:57:52;;;;;;;;;9.33;7.33;;;;;;;;5099512;27;46239;-77
2022/08/31 04:00:17;;;;;;;;;16.67;16.00;;;;;;;;5100490;27;45468;-77
2022/08/31 04:02:43;;;;;;;;;14.33;14.00;;;;;;;;5100564;27;45578;-77
2022/08/31 04:05:08;;;;;;;;;15.67;13.67;;;;;;;;5100850;27;45414;-77
2022/08/31 04:07:36;;;;;;;;;13.00;12.00;;;;;;;;5100199;27;47319;-77
2022/08/31 04:10:02;;;;;;;;;15.00;15.00;;;;;;;;5100246;27;45269;-77
2022/08/31 04:12:27;;;;;;;;;20.33;14.67;;;;;;;;5100317;27;45404;-77
2022/08/31 04:14:54;;;;;;;;;14.33;14.33;;;;;;;;5100473;27;45209;-77
2022/08/31 04:17:19;;;;;;;;;20.33;14.00;;;;;;;;5080045;27;46220;-76
2022/08/31 04:19:44;;;;;;;;;16.67;14.67;;;;;;;;5079880;27;45313;-76
2022/08/31 04:22:09;;;;;;;;;13.00;12.67;;;;;;;;5080139;28;45359;-76
2022/08/31 04:24:35;;;;;;;;;15.33;13.67;;;;;;;;5080118;28;45532;-76
2022/08/31 04:27:00;;;;;;;;;15.67;12.67;;;;;;;;5079596;28;46457;-76
2022/08/31 04:29:25;;;;;;;;;15.00;13.33;;;;;;;;5079778;28;45285;-76
2022/08/31 04:31:50;;;;;;;;;21.33;15.67;;;;;;;;5079185;27;45468;-76
2022/08/31 04:34:15;;;;;;;;;11.00;10.33;;;;;;;;5080082;28;45140;-77
2022/08/31 04:36:44;;;;;;;;;8.33;7.00;;;;;;;;5079379;28;46287;-77
2022/08/31 04:39:09;;;;;;;;;18.67;15.33;;;;;;;;5079821;28;45393;-77
2022/08/31 04:41:36;;;;;;;;;18.00;14.67;;;;;;;;5079485;27;45375;-76
2022/08/31 04:44:02;;;;;;;;;19.00;17.33;;;;;;;;5081585;27;45447;-77
2022/08/31 04:46:28;;;;;;;;;13.33;13.33;;;;;;;;5099403;27;47120;-77
2022/08/31 04:48:55;;;;;;;;;17.00;14.33;;;;;;;;5098315;27;45976;-76
2022/08/31 04:51:22;;;;;;;;;14.33;13.67;;;;;;;;5099911;27;45169;-77
2022/08/31 04:53:47;;;;;;;;;27.33;18.67;;;;;;;;5099860;27;45372;-77
2022/08/31 04:56:16;;;;;;;;;18.00;16.67;;;;;;;;5099466;27;46607;-77
2022/08/31 04:58:42;;;;;;;;;20.00;18.33;;;;;;;;5099845;27;45412;-76
2022/08/31 05:01:12;;;;;;;;;17.67;15.67;;;;;;;;5099436;27;45353;-77
2022/08/31 05:03:39;;;;;;;;;19.00;18.33;;;;;;;;5099521;27;45324;-77
2022/08/31 05:06:04;;;;;;;;;16.00;14.67;;;;;;;;5098575;27;47070;-77
2022/08/31 05:08:30;;;;;;;;;17.00;15.00;;;;;;;;5098475;27;45387;-77
2022/08/31 05:10:55;;;;;;;;;16.33;14.67;;;;;;;;5099647;27;45399;-77
2022/08/31 05:13:20;;;;;;;;;22.67;17.67;;;;;;;;5099363;27;45366;-77
2022/08/31 05:15:46;;;;;;;;;14.33;14.00;;;;;;;;5099237;27;46351;-77
2022/08/31 05:18:11;;;;;;;;;16.33;16.33;;;;;;;;5099256;27;45323;-77
2022/08/31 05:20:37;;;;;;;;;17.00;14.33;;;;;;;;5099325;27;45521;-77
2022/08/31 05:23:02;;;;;;;;;12.00;11.67;;;;;;;;5098821;27;45147;-78
2022/08/31 05:25:27;;;;;;;;;13.67;13.67;;;;;;;;5099220;27;45518;-78
2022/08/31 05:27:53;;;;;;;;;18.67;18.33;;;;;;;;5099239;27;45268;-79
2022/08/31 05:30:19;;;;;;;;;17.00;15.00;;;;;;;;5099315;27;45335;-79
2022/08/31 05:32:44;;;;;;;;;16.00;15.67;;;;;;;;5098805;27;45370;-78
2022/08/31 05:35:09;;;;;;;;;17.00;14.67;;;;;;;;5098946;27;46716;-78
2022/08/31 05:37:35;;;;;;;;;17.33;15.67;;;;;;;;5093376;27;45514;-77
2022/08/31 05:40:00;;;;;;;;;22.33;17.33;;;;;;;;5078625;28;45420;-76
2022/08/31 05:42:25;;;;;;;;;20.67;17.00;;;;;;;;5078983;28;45205;-76
2022/08/31 05:44:50;;;;;;;;;15.67;13.67;;;;;;;;5078542;28;46447;-76
2022/08/31 05:47:15;;;;;;;;;15.33;14.33;;;;;;;;5079152;28;45360;-76
2022/08/31 05:49:41;;;;;;;;;16.67;16.67;;;;;;;;5078763;28;45270;-75
2022/08/31 05:52:06;;;;;;;;;14.67;14.67;;;;;;;;5078794;28;45282;-75
2022/08/31 05:54:33;;;;;;;;;19.00;15.67;;;;;;;;5078631;27;45431;-77
2022/08/31 05:56:58;;;;;;;;;18.00;16.00;;;;;;;;5088305;27;45463;-77
2022/08/31 05:59:23;;;;;;;;;18.00;14.33;;;;;;;;5098991;27;45279;-75
2022/08/31 06:01:49;;;;;;;;;18.00;15.00;;;;;;;;5098610;27;45226;-75
2022/08/31 06:04:14;;;;;;;;;16.00;11.33;;;;;;;;5089387;27;45308;-74
2022/08/31 06:06:39;;;;;;;;;14.67;13.00;;;;;;;;5078004;28;45443;-75
2022/08/31 06:09:05;;;;;;;;;14.67;13.67;;;;;;;;5078285;28;45316;-74
2022/08/31 06:11:33;;;;;;;;;14.67;12.67;;;;;;;;5078110;27;45665;-75
2022/08/31 06:13:59;;;;;;;;;12.67;11.33;;;;;;;;5077840;28;46299;-72
2022/08/31 06:16:25;;;;;;;;;15.67;14.00;;;;;;;;5077598;28;45437;-75
2022/08/31 06:18:52;;;;;;;;;15.33;14.00;;;;;;;;5078127;28;45334;-75
2022/08/31 06:21:19;;;;;;;;;12.33;11.00;;;;;;;;5078255;28;45316;-74
2022/08/31 06:23:46;;;;;;;;;16.33;13.67;;;;;;;;5077708;28;46376;-75
2022/08/31 06:26:14;;;;;;;;;13.33;11.67;;;;;;;;5077721;28;45455;-75
2022/08/31 06:28:40;;;;;;;;;15.67;14.33;;;;;;;;5096445;27;45293;-75
2022/08/31 06:31:10;;;;;;;;;16.00;14.00;;;;;;;;5098630;27;45406;-77
2022/08/31 06:33:36;;;;;;;;;16.67;16.00;;;;;;;;5097891;27;46015;-74
2022/08/31 06:36:02;;;;;;;;;14.67;13.33;;;;;;;;5098116;27;45385;-74
2022/08/31 06:38:27;;;;;;;;;13.00;11.33;;;;;;;;5098328;27;45312;-74
2022/08/31 06:40:52;;;;;;;;;16.33;15.00;;;;;;;;5098435;27;45299;-75
2022/08/31 06:43:18;;;;;;;;;14.67;12.67;;;;;;;;5098216;27;45444;-75
2022/08/31 06:45:43;;;;;;;;;14.00;13.00;;;;;;;;5083133;27;45362;-75
2022/08/31 06:48:08;;;;;;;;;14.67;13.33;;;;;;;;5077647;28;45404;-74
2022/08/31 06:50:34;;;;;;;;;17.00;14.67;;;;;;;;5077991;28;45267;-75
2022/08/31 06:52:59;;;;;;;;;18.67;14.67;;;;;;;;5077219;28;46577;-74
2022/08/31 06:55:24;;;;;;;;;15.33;13.33;;;;;;;;5077817;27;45392;-74
2022/08/31 06:57:50;;;;;;;;;13.67;12.00;;;;;;;;5077773;28;45140;-74
2022/08/31 07:00:15;;;;;;;;;14.33;12.67;;;;;;;;5077545;27;46038;-75
2022/08/31 07:02:40;;;;;;;;;15.00;12.00;;;;;;;;5077124;28;45377;-75
2022/08/31 07:05:05;;;;;;;;;14.00;12.00;;;;;;;;5077403;28;45286;-74
2022/08/31 07:07:31;;;;;;;;;17.33;14.00;;;;;;;;5077242;28;45537;-74
2022/08/31 07:09:56;;;;;;;;;13.00;12.00;;;;;;;;5077761;28;45258;-74
2022/08/31 07:12:22;;;;;;;;;15.33;13.67;;;;;;;;5077165;28;46459;-76
2022/08/31 07:14:47;;;;;;;;;14.33;12.33;;;;;;;;5077157;28;45226;-78
2022/08/31 07:17:12;;;;;;;;;14.00;12.33;;;;;;;;5089435;27;45443;-75
2022/08/31 07:19:37;;;;;;;;;13.33;12.33;;;;;;;;5097875;27;45218;-75
2022/08/31 07:22:04;;;;;;;;;12.67;11.67;;;;;;;;5097534;27;46527;-75
2022/08/31 07:24:32;;;;;;;;;11.33;11.33;;;;;;;;5097525;27;45493;-76
2022/08/31 07:27:11;;;;;;;;;16.67;13.67;;;;;;;;5097613;27;45368;-77
2022/08/31 07:29:40;;;;;;;;;14.67;13.33;;;;;;;;5097758;27;45375;-77
2022/08/31 07:32:10;;;;;;;;;12.67;12.67;;;;;;;;5099626;27;45359;-76
2022/08/31 07:34:35;;;;;;;;;13.33;10.33;;;;;;;;5081978;27;45352;-75
2022/08/31 07:42:31;;;;;;;;;13.67;13.00;;;;;;;;5080359;28;45445;-76
2022/08/31 07:44:59;;;;;;;;;13.00;13.00;;;;;;;;5080316;27;45219;-77
2022/08/31 07:47:27;;;;;;;;;13.33;13.33;;;;;;;;5080402;28;45366;-76
2022/08/31 07:49:53;;;;;;;;;19.00;14.50;;;;;;;;5080465;27;45302;-75
2022/08/31 07:52:25;;;;;;;;;13.67;13.67;;;;;;;;5079347;27;46327;-75
2022/08/31 07:54:51;;;;;;;;;13.33;12.67;;;;;;;;5080145;28;45355;-76
2022/08/31 07:57:17;;;;;;;;;16.00;15.67;;;;;;;;5080250;28;45344;-77
2022/08/31 07:59:43;;;;;;;;;16.33;13.33;;;;;;;;5080342;27;45440;-75
2022/08/31 08:02:08;;;;;;;;;13.00;12.33;;;;;;;;5079695;28;45838;-77
2022/08/31 08:04:41;;;;;;;;;14.33;14.33;;;;;;;;5080265;28;45277;-75
2022/08/31 08:07:07;;;;;;;;;15.00;12.67;;;;;;;;5090201;27;45308;-75
2022/08/31 08:09:33;;;;;;;;;13.00;11.33;;;;;;;;5100692;27;45432;-75
2022/08/31 08:12:05;;;;;;;;;14.67;12.33;;;;;;;;5100464;27;45813;-75
2022/08/31 08:14:30;;;;;;;;;13.33;10.33;;;;;;;;5100251;27;45320;-76
2022/08/31 08:16:56;;;;;;;;;11.00;11.00;;;;;;;;5100519;27;45379;-76
2022/08/31 08:19:21;;;;;;;;;13.33;11.00;;;;;;;;5100541;27;45377;-75
2022/08/31 08:21:46;;;;;;;;;14.00;12.33;;;;;;;;5100270;27;45499;-76
2022/08/31 08:24:12;;;;;;;;;16.00;12.33;;;;;;;;5080431;27;45489;-75
2022/08/31 08:26:40;;;;;;;;;10.67;10.33;;;;;;;;5079760;28;45436;-74
2022/08/31 08:29:06;;;;;;;;;10.00;10.00;;;;;;;;5079952;28;45509;-76
2022/08/31 08:31:32;;;;;;;;;13.67;11.33;;;;;;;;5079674;28;46439;-75
2022/08/31 08:33:57;;;;;;;;;16.00;13.67;;;;;;;;5079525;28;45751;-77
2022/08/31 08:36:22;;;;;;;;;15.33;12.00;;;;;;;;5079947;28;45286;-77
2022/08/31 08:38:49;;;;;;;;;11.67;11.33;;;;;;;;5079565;28;45471;-77
2022/08/31 08:41:19;;;;;;;;;16.67;13.67;;;;;;;;5078726;27;45719;-78
2022/08/31 08:43:46;;;;;;;;;17.00;11.00;;;;;;;;5078339;27;45291;-76
2022/08/31 08:46:13;;;;;;;;;11.00;10.33;;;;;;;;5079569;28;45205;-77
2022/08/31 08:48:40;;;;;;;;;10.00;10.00;;;;;;;;5079604;28;45348;-76
2022/08/31 08:51:09;;;;;;;;;12.00;11.00;;;;;;;;5079366;28;46170;-77
2022/08/31 08:53:37;;;;;;;;;10.67;10.00;;;;;;;;5060880;28;45287;-76
2022/08/31 08:56:02;;;;;;;;;13.00;13.00;;;;;;;;5092623;27;45223;-77
2022/08/31 08:58:27;;;;;;;;;11.00;9.00;;;;;;;;5099924;27;45188;-74
2022/08/31 09:00:53;;;;;;;;;12.00;11.33;;;;;;;;5099595;27;45679;-77
2022/08/31 09:03:25;;;;;;;;;13.00;10.00;;;;;;;;5099450;27;45271;-76
2022/08/31 09:05:58;;;;;;;;;16.00;13.00;;;;;;;;5099841;27;45217;-77
2022/08/31 09:08:23;;;;;;;;;10.00;10.00;;;;;;;;5099460;27;45612;-79
2022/08/31 09:10:51;;;;;;;;;9.33;9.33;;;;;;;;5098557;27;47232;-75
2022/08/31 09:13:39;;;;;;;;;12.00;8.67;;;;;;;;5099465;27;45293;-77
2022/08/31 09:16:20;;;;;;;;;12.00;11.00;;;;;;;;5099633;27;45419;-77
2022/08/31 09:18:48;;;;;;;;;14.33;12.33;;;;;;;;5099415;27;45175;-76
2022/08/31 09:21:18;;;;;;;;;11.00;10.00;;;;;;;;5098808;27;48449;-75
2022/08/31 09:23:48;;;;;;;;;11.67;11.00;;;;;;;;5099223;27;45474;-75
2022/08/31 09:26:16;;;;;;;;;12.00;10.33;;;;;;;;5088685;27;45321;-75
2022/08/31 09:28:45;;;;;;;;;8.67;8.67;;;;;;;;5079189;28;45301;-76
2022/08/31 09:31:31;;;;;;;;;12.33;10.00;;;;;;;;5078625;28;46695;-75
2022/08/31 09:33:57;;;;;;;;;14.33;10.67;;;;;;;;5078407;28;45363;-78
2022/08/31 09:36:22;;;;;;;;;11.33;9.33;;;;;;;;5083856;27;45440;-79
2022/08/31 09:38:48;;;;;;;;;11.33;11.00;;;;;;;;5089513;27;45539;-79
2022/08/31 09:41:28;;;;;;;;;18.33;14.00;;;;;;;;5097976;27;46457;-78
2022/08/31 09:43:55;;;;;;;;;9.00;8.67;;;;;;;;5077493;27;45459;-77
2022/08/31 09:46:29;;;;;;;;;13.33;11.33;;;;;;;;5078195;28;45451;-77
2022/08/31 09:48:58;;;;;;;;;11.67;10.33;;;;;;;;5077764;28;45480;-76
2022/08/31 09:51:32;;;;;;;;;7.00;6.67;;;;;;;;5077419;28;45314;-75
2022/08/31 09:56:53;;;;;;;;;11.00;9.00;;;;;;;;5077606;27;45383;-74
2022/08/31 09:59:40;;;;;;;;;8.67;8.33;;;;;;;;5077159;27;46912;-76
2022/08/31 10:02:21;;;;;;;;;10.00;9.00;;;;;;;;5077302;28;45612;-76
2022/08/31 10:04:49;;;;;;;;;7.67;7.67;;;;;;;;5077103;27;45471;-75
2022/08/31 10:07:18;;;;;;;;;7.00;7.00;;;;;;;;5077405;28;45613;-77
2022/08/31 10:09:45;;;;;;;;;7.00;7.00;;;;;;;;5077758;28;45395;-77
2022/08/31 10:12:15;;;;;;;;;8.00;7.33;;;;;;;;5077106;28;46629;-77
2022/08/31 10:14:51;;;;;;;;;7.67;7.67;;;;;;;;5076791;27;45579;-75
2022/08/31 10:17:25;;;;;;;;;6.00;6.00;;;;;;;;5077451;27;45412;-81
2022/08/31 10:20:05;;;;;;;;;10.33;6.00;;;;;;;;5077400;28;45464;-78
2022/08/31 10:22:35;;;;;;;;;12.00;8.33;;;;;;;;5076926;28;45310;-75
2022/08/31 10:25:13;;;;;;;;;6.33;6.00;;;;;;;;5077081;28;45770;-78
2022/08/31 10:27:41;;;;;;;;;6.33;6.33;;;;;;;;5077097;28;45781;-76
2022/08/31 10:30:10;;;;;;;;;8.33;7.33;;;;;;;;5077063;27;45520;-75
2022/08/31 10:32:46;;;;;;;;;8.33;7.00;;;;;;;;5076731;27;46841;-74
2022/08/31 10:35:16;;;;;;;;;8.00;8.00;;;;;;;;5076832;28;45511;-76
2022/08/31 10:37:54;;;;;;;;;6.25;4.75;;;;;;;;5077037;28;45370;-75
2022/08/31 10:40:23;;;;;;;;;7.00;6.00;;;;;;;;5077356;28;45274;-76
2022/08/31 10:43:12;;;;;;;;;5.25;4.25;;;;;;;;5076751;27;45465;-76
2022/08/31 10:45:41;;;;;;;;;5.33;5.33;;;;;;;;5075431;27;45445;-77
2022/08/31 10:48:06;;;;;;;;;3.33;3.33;;;;;;;;5097343;27;45467;-76
2022/08/31 10:50:46;;;;;;;;;9.67;7.00;;;;;;;;5097507;27;45900;-76
2022/08/31 10:53:32;;;;;;;;;6.33;6.33;;;;;;;;5097919;27;45439;-75
2022/08/31 10:56:13;;;;;;;;;5.00;5.00;;;;;;;;5098005;27;45222;-74
2022/08/31 10:58:50;;;;;;;;;8.00;8.00;;;;;;;;5097998;27;45356;-75
2022/08/31 11:01:27;;;;;;;;;8.00;5.67;;;;;;;;5098103;27;45249;-74
2022/08/31 11:04:01;;;;;;;;;6.00;3.67;;;;;;;;5077298;28;46257;-75
2022/08/31 11:06:26;;;;;;;;;4.67;4.00;;;;;;;;5078571;27;45514;-75
2022/08/31 11:08:56;;;;;;;;;11.67;7.67;;;;;;;;5080925;27;45314;-75
2022/08/31 11:11:28;;;;;;;;;4.67;4.00;;;;;;;;5081438;28;45363;-74
2022/08/31 11:14:00;;;;;;;;;9.00;8.00;;;;;;;;5080718;28;46306;-78
2022/08/31 11:16:44;;;;;;;;;6.33;5.00;;;;;;;;5080837;28;45251;-75
2022/08/31 11:19:09;;;;;;;;;8.67;6.33;;;;;;;;5082350;27;45889;-75
2022/08/31 11:21:54;;;;;;;;;7.33;6.67;;;;;;;;5101360;27;45332;-76
2022/08/31 11:24:44;;;;;;;;;6.67;5.67;;;;;;;;5018160;28;46317;-77
2022/08/31 11:27:17;;;;;;;;;7.33;6.67;;;;;;;;4939861;28;45377;-77
2022/08/31 11:29:57;;;;;;;;;8.33;6.00;;;;;;;;4939806;28;45371;-76
2022/08/31 11:32:33;;;;;;;;;7.00;6.33;;;;;;;;4939920;28;45321;-76
2022/08/31 11:34:59;;;;;;;;;5.00;5.00;;;;;;;;4939287;28;46769;-75
2022/08/31 11:37:51;;;;;;;;;7.33;7.33;;;;;;;;4938541;28;45380;-75
2022/08/31 11:40:40;;;;;;;;;7.00;5.33;;;;;;;;4901375;29;45359;-74
2022/08/31 11:43:12;;;;;;;;;9.67;7.67;;;;;;;;4901851;29;45302;-76
2022/08/31 11:45:38;;;;;;;;;9.33;7.00;;;;;;;;4900940;29;45472;-76
2022/08/31 11:48:04;;;;;;;;;6.33;6.33;;;;;;;;4901283;29;45690;-75
2022/08/31 11:50:35;;;;;;;;;8.00;8.00;;;;;;;;4901390;29;45515;-77
2022/08/31 11:53:16;;;;;;;;;9.67;9.00;;;;;;;;4901595;29;45581;-75
2022/08/31 11:55:50;;;;;;;;;9.67;8.33;;;;;;;;4900037;28;46461;-75
2022/08/31 11:58:24;;;;;;;;;6.00;6.00;;;;;;;;4901124;29;45263;-74
2022/08/31 12:00:50;;;;;;;;;6.00;6.00;;;;;;;;4910535;28;45374;-75
2022/08/31 12:03:34;;;;;;;;;9.67;8.00;;;;;;;;4949382;28;45348;-75
2022/08/31 12:05:59;;;;;;;;;9.67;7.67;;;;;;;;5017462;28;45513;-75
2022/08/31 12:08:26;;;;;;;;;7.00;7.00;;;;;;;;5017555;28;45504;-76
2022/08/31 12:11:10;;;;;;;;;12.67;9.33;;;;;;;;5013330;28;45383;-75
2022/08/31 12:13:44;;;;;;;;;7.00;7.00;;;;;;;;4997636;28;45485;-74
2022/08/31 12:16:19;;;;;;;;;9.33;8.67;;;;;;;;4999914;28;46736;-74
2022/08/31 12:18:50;;;;;;;;;7.33;7.00;;;;;;;;5039246;28;45441;-74
2022/08/31 12:24:19;;;;;;;;;7.33;7.33;;;;;;;;5035765;28;45241;-76
2022/08/31 12:26:53;;;;;;;;;9.67;8.67;;;;;;;;5039110;28;45465;-77
2022/08/31 12:29:21;;;;;;;;;7.00;7.00;;;;;;;;5038819;28;45532;-75
2022/08/31 12:32:07;;;;;;;;;8.00;8.00;;;;;;;;5039442;28;45341;-76
2022/08/31 12:34:34;;;;;;;;;6.67;6.67;;;;;;;;5026195;28;45569;-77
2022/08/31 12:36:59;;;;;;;;;9.00;9.00;;;;;;;;5039003;28;46083;-77
2022/08/31 12:39:26;;;;;;;;;9.67;8.00;;;;;;;;5039107;28;45270;-78
2022/08/31 12:41:54;;;;;;;;;10.67;8.00;;;;;;;;5039384;28;45490;-76
2022/08/31 12:44:25;;;;;;;;;10.67;7.67;;;;;;;;5038913;28;45319;-75
2022/08/31 12:46:56;;;;;;;;;7.00;7.00;;;;;;;;5038893;28;46518;-75
2022/08/31 12:49:22;;;;;;;;;7.67;6.67;;;;;;;;5037662;28;45274;-74
2022/08/31 12:51:47;;;;;;;;;10.00;8.00;;;;;;;;5038923;28;45409;-76
2022/08/31 12:54:18;;;;;;;;;7.33;6.00;;;;;;;;5039193;28;45299;-75
2022/08/31 12:57:08;;;;;;;;;11.67;8.33;;;;;;;;5039070;28;46280;-77
2022/08/31 12:59:42;;;;;;;;;10.67;7.33;;;;;;;;5041161;28;45274;-75
2022/08/31 13:02:10;;;;;;;;;6.67;6.00;;;;;;;;5059080;28;45507;-77
2022/08/31 13:04:35;;;;;;;;;7.33;7.00;;;;;;;;5059129;28;45439;-75
2022/08/31 13:07:11;;;;;;;;;6.67;6.67;;;;;;;;5071807;27;46172;-74
2022/08/31 13:09:36;;;;;;;;;8.00;7.33;;;;;;;;5099723;27;45280;-74
2022/08/31 13:12:02;;;;;;;;;6.33;6.33;;;;;;;;5099665;27;45359;-75
2022/08/31 13:14:28;;;;;;;;;8.33;6.67;;;;;;;;5099689;27;45218;-75
2022/08/31 13:16:54;;;;;;;;;7.33;6.00;;;;;;;;5097973;27;45636;-77
2022/08/31 13:19:25;;;;;;;;;10.33;9.00;;;;;;;;5099295;27;45748;-77
2022/08/31 13:21:52;;;;;;;;;7.67;5.33;;;;;;;;5099494;27;45379;-75
2022/08/31 13:24:22;;;;;;;;;9.00;8.33;;;;;;;;5099718;27;45340;-73
2022/08/31 13:27:00;;;;;;;;;8.67;7.67;;;;;;;;5098949;27;46889;-75
2022/08/31 13:29:25;;;;;;;;;9.00;7.67;;;;;;;;5098632;27;45209;-75
2022/08/31 13:31:51;;;;;;;;;8.00;7.00;;;;;;;;5090154;27;45570;-77
2022/08/31 13:34:17;;;;;;;;;9.33;5.67;;;;;;;;5078983;28;45326;-75
2022/08/31 13:36:46;;;;;;;;;8.00;7.00;;;;;;;;5078322;27;47254;-75
2022/08/31 13:39:28;;;;;;;;;7.33;7.33;;;;;;;;5078480;28;45542;-76
2022/08/31 13:41:54;;;;;;;;;3.33;3.33;;;;;;;;5078720;28;45524;-74
2022/08/31 13:44:21;;;;;;;;;8.67;8.00;;;;;;;;5079056;28;45233;-75
2022/08/31 13:46:58;;;;;;;;;11.33;8.33;;;;;;;;5078273;28;45372;-74
2022/08/31 13:49:43;;;;;;;;;7.00;7.00;;;;;;;;5077821;27;45328;-75
2022/08/31 13:52:16;;;;;;;;;9.67;9.00;;;;;;;;5078176;27;45561;-75
2022/08/31 13:54:41;;;;;;;;;6.00;6.00;;;;;;;;5079027;27;45565;-77
2022/08/31 13:57:15;;;;;;;;;10.67;10.00;;;;;;;;5078324;28;46364;-74
2022/08/31 13:59:40;;;;;;;;;9.33;7.33;;;;;;;;5078512;28;45262;-74
2022/08/31 14:02:05;;;;;;;;;11.00;8.00;;;;;;;;5078574;28;45197;-76
2022/08/31 14:04:43;;;;;;;;;7.00;7.00;;;;;;;;5078627;28;45442;-76
2022/08/31 14:07:25;;;;;;;;;6.33;6.33;;;;;;;;5086457;27;46336;-73
2022/08/31 14:09:52;;;;;;;;;8.00;8.00;;;;;;;;5098664;27;45360;-76
2022/08/31 14:12:38;;;;;;;;;8.67;8.67;;;;;;;;5080397;27;45388;-77
2022/08/31 14:15:31;;;;;;;;;7.67;7.67;;;;;;;;5015588;28;45473;-76
2022/08/31 14:18:00;;;;;;;;;6.33;6.00;;;;;;;;5015476;28;47131;-76
2022/08/31 14:20:32;;;;;;;;;5.33;5.00;;;;;;;;5015382;28;45430;-75
2022/08/31 14:23:16;;;;;;;;;6.67;6.67;;;;;;;;5014389;28;45977;-76
2022/08/31 14:25:41;;;;;;;;;10.67;7.33;;;;;;;;5015782;28;45361;-77
2022/08/31 14:28:07;;;;;;;;;9.33;7.00;;;;;;;;5015137;28;45528;-75
2022/08/31 14:30:34;;;;;;;;;8.67;8.00;;;;;;;;5015159;28;45902;-75
2022/08/31 14:33:00;;;;;;;;;8.00;8.00;;;;;;;;5015313;28;45386;-75
2022/08/31 14:35:25;;;;;;;;;9.67;6.33;;;;;;;;5015618;28;45398;-75
2022/08/31 14:37:51;;;;;;;;;9.00;9.00;;;;;;;;5015073;28;45410;-76
2022/08/31 14:40:16;;;;;;;;;10.67;8.00;;;;;;;;5013159;28;45644;-75
2022/08/31 14:42:43;;;;;;;;;6.00;6.00;;;;;;;;5015171;28;45312;-77
2022/08/31 14:45:11;;;;;;;;;7.00;5.00;;;;;;;;5015790;28;45501;-76
2022/08/31 14:47:42;;;;;;;;;9.00;7.00;;;;;;;;5015128;28;46176;-76
2022/08/31 14:50:10;;;;;;;;;8.00;7.67;;;;;;;;5014959;28;45362;-75